createdAt,value
2018-02-10T11:22:02.509Z,94347.69
2018-02-10T11:24:28.607Z,94348.15
2018-02-10T11:26:54.654Z,94347.88
2018-02-10T11:29:20.697Z,94342.38
2018-02-10T11:31:46.765Z,94342.61
2018-02-10T11:34:12.830Z,94345.39
2018-02-10T11:36:38.961Z,94337.08
2018-02-10T11:39:05.011Z,94337.08
2018-02-10T11:41:31.067Z,94340.39
2018-02-10T11:43:57.095Z,94335.22
2018-02-10T11:46:23.325Z,94332.63
2018-02-10T11:48:49.581Z,94336.66
2018-02-10T11:51:15.663Z,94334.37
2018-02-10T11:53:41.685Z,94336.36
2018-02-10T11:56:07.724Z,94336.42
2018-02-10T11:58:33.732Z,94332.05
2018-02-10T12:00:59.815Z,94333.58
2018-02-10T12:03:25.889Z,94329.05
2018-02-10T12:05:52.048Z,94318.88
2018-02-10T12:08:18.102Z,94329.05
2018-02-10T12:10:44.137Z,94320.03
2018-02-10T12:13:10.171Z,94317.34
2018-02-10T12:15:36.248Z,94318.25
2018-02-10T12:18:02.511Z,94314.37
2018-02-10T12:20:28.597Z,94310.03
2018-02-10T12:22:54.610Z,94312.91
2018-02-10T12:25:20.633Z,94311.30
2018-02-10T12:27:46.663Z,94313.13
2018-02-10T12:30:12.686Z,94300.94
2018-02-10T12:32:38.803Z,94296.42
2018-02-10T12:35:04.843Z,94296.20
2018-02-10T12:37:30.989Z,94286.55
2018-02-10T12:39:57.055Z,94277.77
2018-02-10T12:42:23.167Z,94282.51
2018-02-10T12:44:49.217Z,94274.68
2018-02-10T12:47:15.274Z,94280.70
2018-02-10T12:49:41.337Z,94271.45
2018-02-10T12:52:07.363Z,94264.55
2018-02-10T12:54:33.403Z,94278.03
2018-02-10T12:56:59.436Z,94270.35
2018-02-10T12:59:25.451Z,94271.86
2018-02-10T13:01:51.465Z,94263.31
2018-02-10T13:04:17.508Z,94261.80
2018-02-10T13:06:43.577Z,94264.09
2018-02-10T13:09:09.597Z,94256.56
2018-02-10T13:11:35.650Z,94261.36
2018-02-10T13:14:01.667Z,94262.89
2018-02-10T13:16:27.672Z,94263.38
2018-02-10T13:18:53.766Z,94259.79
2018-02-10T13:21:19.782Z,94252.20
2018-02-10T13:23:45.811Z,94255.45
2018-02-10T13:26:11.832Z,94257.37
2018-02-10T13:28:37.881Z,94255.31
2018-02-10T13:31:03.885Z,94256.84
2018-02-10T13:33:29.925Z,94253.68
2018-02-10T13:35:56.006Z,94252.51
2018-02-10T13:38:22.046Z,94248.63
2018-02-10T13:40:48.109Z,94241.34
2018-02-10T13:43:14.119Z,94236.93
2018-02-10T13:45:40.132Z,94242.80
2018-02-10T13:48:06.232Z,94243.59
2018-02-10T13:50:32.239Z,94244.84
2018-02-10T13:52:58.276Z,94238.93
2018-02-10T13:55:24.294Z,94234.73
2018-02-10T13:57:50.364Z,94240.52
2018-02-10T14:00:16.416Z,94236.24
2018-02-10T14:02:42.444Z,94236.39
2018-02-10T14:05:08.473Z,94235.76
2018-02-10T14:07:34.508Z,94228.31
2018-02-10T14:10:00.653Z,94236.30
2018-02-10T14:12:26.627Z,94236.21
2018-02-10T14:14:52.708Z,94230.05
2018-02-10T14:17:18.750Z,94232.72
2018-02-10T14:19:44.786Z,94228.84
2018-02-10T14:22:10.841Z,94226.61
2018-02-10T14:24:36.913Z,94224.32
2018-02-10T14:27:02.963Z,94222.89
2018-02-10T14:29:28.984Z,94224.80
2018-02-10T14:31:55.016Z,94216.80
2018-02-10T14:34:21.075Z,94219.80
2018-02-10T14:36:47.119Z,94220.97
2018-02-10T14:39:13.236Z,94230.14
2018-02-10T14:41:39.311Z,94228.20
2018-02-10T14:44:05.322Z,94240.94
2018-02-10T14:46:31.406Z,94244.14
2018-02-10T14:48:57.428Z,94242.66
2018-02-10T14:51:23.474Z,94240.52
2018-02-10T14:53:49.569Z,94240.67
2018-02-10T14:56:15.606Z,94247.37
2018-02-10T14:58:41.649Z,94252.27
2018-02-10T15:01:07.663Z,94246.87
2018-02-10T15:03:33.698Z,94245.78
2018-02-10T15:05:59.764Z,94242.23
2018-02-10T15:08:25.813Z,94243.48
2018-02-10T15:10:51.900Z,94237.16
2018-02-10T15:13:17.961Z,94239.91
2018-02-10T15:15:43.975Z,94238.84
2018-02-10T15:18:10.001Z,94236.03
2018-02-10T15:20:36.066Z,94228.22
2018-02-10T15:23:02.137Z,94219.64
2018-02-10T15:25:28.203Z,94220.92
2018-02-10T15:27:54.228Z,94219.48
2018-02-10T15:30:20.306Z,94204.79
2018-02-10T15:32:46.335Z,94202.26
2018-02-10T15:35:12.356Z,94199.09
2018-02-10T15:37:38.421Z,94191.97
2018-02-10T15:40:04.455Z,94188.44
2018-02-10T15:42:30.501Z,94181.72
2018-02-10T15:44:56.677Z,94190.05
2018-02-10T15:47:22.702Z,94186.51
2018-02-10T15:49:48.720Z,94179.72
2018-02-10T15:52:14.755Z,94172.70
2018-02-10T15:54:40.776Z,94172.76
2018-02-10T15:57:06.797Z,94166.94
2018-02-10T15:59:32.820Z,94169.08
2018-02-10T16:01:58.910Z,94175.86
2018-02-10T16:04:24.958Z,94172.22
2018-02-10T16:06:51.004Z,94178.59
2018-02-10T16:09:17.066Z,94176.32
2018-02-10T16:11:43.044Z,94177.97
2018-02-10T16:14:09.108Z,94170.48
2018-02-10T16:16:35.159Z,94172.45
2018-02-10T16:19:01.194Z,94164.14
2018-02-10T16:21:27.217Z,94165.23
2018-02-10T16:23:53.290Z,94155.68
2018-02-10T16:26:19.377Z,94156.10
2018-02-10T16:28:45.416Z,94148.59
2018-02-10T16:31:11.518Z,94150.64
2018-02-10T16:33:37.535Z,94154.98
2018-02-10T16:36:03.564Z,94152.29
2018-02-10T16:38:29.658Z,94149.83
2018-02-10T16:40:55.703Z,94152.36
2018-02-10T16:43:21.817Z,94154.01
2018-02-10T16:45:47.883Z,94154.25
2018-02-10T16:48:13.943Z,94158.83
2018-02-10T16:50:39.956Z,94167.07
2018-02-10T16:53:06.044Z,94165.57
2018-02-10T16:55:32.155Z,94157.64
2018-02-10T16:57:58.209Z,94156.14
2018-02-10T17:00:24.328Z,94151.70
2018-02-10T17:02:50.323Z,94142.30
2018-02-10T17:05:16.399Z,94148.78
2018-02-10T17:07:42.415Z,94140.46
2018-02-10T17:10:08.632Z,94142.00
2018-02-10T17:12:34.695Z,94139.38
2018-02-10T17:15:00.734Z,94141.89
2018-02-10T17:17:26.832Z,94128.16
2018-02-10T17:19:52.843Z,94130.81
2018-02-10T17:22:18.897Z,94130.53
2018-02-10T17:24:44.963Z,94123.72
2018-02-10T17:27:11.060Z,94125.69
2018-02-10T17:29:37.123Z,94115.09
2018-02-10T17:32:03.152Z,94114.39
2018-02-10T17:34:29.232Z,94107.91
2018-02-10T17:36:55.246Z,94110.52
2018-02-10T17:39:21.367Z,94108.33
2018-02-10T17:41:47.607Z,94108.39
2018-02-10T17:44:13.682Z,94106.72
2018-02-10T17:46:39.776Z,94108.95
2018-02-10T17:49:05.834Z,94107.42
2018-02-10T17:51:31.895Z,94100.59
2018-02-10T17:53:57.914Z,94098.66
2018-02-10T17:56:23.992Z,94098.59
2018-02-10T17:58:50.014Z,94091.80
2018-02-10T18:01:16.053Z,94090.36
2018-02-10T18:03:42.128Z,94097.73
2018-02-10T18:06:08.178Z,94098.59
2018-02-10T18:08:34.198Z,94098.59
2018-02-10T18:11:00.319Z,94094.78
2018-02-10T18:13:26.353Z,94100.87
2018-02-10T18:15:52.437Z,94104.47
2018-02-10T18:18:18.513Z,94102.40
2018-02-10T18:20:44.561Z,94098.06
2018-02-10T18:23:10.644Z,94102.88
2018-02-10T18:25:36.694Z,94103.48
2018-02-10T18:28:02.740Z,94100.31
2018-02-10T18:30:28.835Z,94098.45
2018-02-10T18:32:54.993Z,94097.36
2018-02-10T18:35:20.988Z,94103.44
2018-02-10T18:37:47.103Z,94102.23
2018-02-10T18:40:13.181Z,94099.59
2018-02-10T18:42:39.219Z,94103.38
2018-02-10T18:45:05.281Z,94098.86
2018-02-10T18:47:31.338Z,94106.91
2018-02-10T18:49:57.363Z,94102.64
2018-02-10T18:52:23.385Z,94108.20
2018-02-10T18:54:49.465Z,94100.78
2018-02-10T18:57:15.537Z,94110.19
2018-02-10T18:59:41.638Z,94101.73
2018-02-10T19:02:07.680Z,94109.91
2018-02-10T19:04:33.747Z,94110.50
2018-02-10T19:06:59.765Z,94105.67
2018-02-10T19:09:25.836Z,94101.53
2018-02-10T19:11:51.917Z,94102.80
2018-02-10T19:14:17.948Z,94098.02
2018-02-10T19:16:44.039Z,94095.17
2018-02-10T19:19:10.069Z,94095.70
2018-02-10T19:21:36.155Z,94086.30
2018-02-10T19:24:02.194Z,94098.22
2018-02-10T19:26:28.268Z,94093.41
2018-02-10T19:28:54.335Z,94092.16
2018-02-10T19:31:20.413Z,94094.75
2018-02-10T19:33:46.430Z,94091.98
2018-02-10T19:36:12.494Z,94097.27
2018-02-10T19:38:38.511Z,94097.75
2018-02-10T19:41:04.608Z,94097.02
2018-02-10T19:43:30.629Z,94093.39
2018-02-10T19:45:56.646Z,94092.75
2018-02-10T19:48:22.745Z,94092.99
2018-02-10T19:50:48.823Z,94091.20
2018-02-10T19:53:14.856Z,94088.88
2018-02-10T19:55:40.928Z,94085.42
2018-02-10T19:58:06.962Z,94091.84
2018-02-10T20:00:33.035Z,94087.02
2018-02-10T20:02:59.097Z,94088.97
2018-02-10T20:05:25.208Z,94082.44
2018-02-10T20:07:51.206Z,94080.11
2018-02-10T20:10:17.307Z,94078.46
2018-02-10T20:12:43.418Z,94077.22
2018-02-10T20:15:09.436Z,94075.29
2018-02-10T20:17:35.458Z,94076.67
2018-02-10T20:20:01.548Z,94072.71
2018-02-10T20:22:27.617Z,94062.30
2018-02-10T20:24:53.658Z,94063.00
2018-02-10T20:27:19.708Z,94062.05
2018-02-10T20:29:45.740Z,94050.02
2018-02-10T20:32:11.786Z,94056.84
2018-02-10T20:34:37.894Z,94050.36
2018-02-10T20:37:03.904Z,94053.03
2018-02-10T20:39:30.007Z,94046.48
2018-02-10T20:41:56.112Z,94050.19
2018-02-10T20:44:22.103Z,94047.34
2018-02-10T20:46:48.184Z,94046.55
2018-02-10T20:49:14.259Z,94045.45
2018-02-10T20:51:40.409Z,94047.28
2018-02-10T20:54:06.441Z,94046.88
2018-02-10T20:56:32.495Z,94046.48
2018-02-10T20:58:58.551Z,94034.71
2018-02-10T21:01:24.571Z,94034.23
2018-02-10T21:03:50.603Z,94033.66
2018-02-10T21:06:16.630Z,94034.94
2018-02-10T21:08:42.772Z,94036.54
2018-02-10T21:11:08.800Z,94024.17
2018-02-10T21:13:34.860Z,94026.47
2018-02-10T21:16:00.878Z,94022.95
2018-02-10T21:18:26.936Z,94022.27
2018-02-10T21:20:52.973Z,94020.98
2018-02-10T21:23:19.109Z,94022.50
2018-02-10T21:25:45.181Z,94023.83
2018-02-10T21:28:11.166Z,94023.48
2018-02-10T21:30:37.224Z,94021.38
2018-02-10T21:33:03.221Z,94018.42
2018-02-10T21:35:29.303Z,94017.55
2018-02-10T21:37:55.379Z,94015.86
2018-02-10T21:40:21.410Z,94020.37
2018-02-10T21:42:47.470Z,94015.06
2018-02-10T21:45:13.550Z,94020.13
2018-02-10T21:47:39.586Z,94013.53
2018-02-10T21:50:05.619Z,94014.00
2018-02-10T21:52:31.646Z,94015.42
2018-02-10T21:54:57.668Z,94017.89
2018-02-10T21:57:23.761Z,94012.98
2018-02-10T21:59:49.792Z,94018.53
2018-02-10T22:02:15.798Z,94009.44
2018-02-10T22:04:41.865Z,94008.58
2018-02-10T22:07:07.919Z,94008.89
2018-02-10T22:09:33.994Z,94003.36
2018-02-10T22:12:00.029Z,94003.36
2018-02-10T22:14:26.145Z,93996.64
2018-02-10T22:16:52.196Z,93998.66
2018-02-10T22:19:18.204Z,93997.20
2018-02-10T22:21:44.267Z,93997.91
2018-02-10T22:24:10.289Z,93998.50
2018-02-10T22:26:36.367Z,93988.11
2018-02-10T22:29:02.389Z,93995.57
2018-02-10T22:31:28.473Z,93996.37
2018-02-10T22:33:54.577Z,93997.09
2018-02-10T22:36:20.680Z,93989.98
2018-02-10T22:38:46.777Z,93986.34
2018-02-10T22:41:12.802Z,93981.14
2018-02-10T22:43:38.884Z,93975.22
2018-02-10T22:46:04.942Z,93981.52
2018-02-10T22:48:30.958Z,93968.52
2018-02-10T22:50:57.029Z,93966.72
2018-02-10T22:53:23.093Z,93968.01
2018-02-10T22:55:49.154Z,93966.27
2018-02-10T22:58:15.220Z,93961.47
2018-02-10T23:00:41.273Z,93961.84
2018-02-10T23:03:07.384Z,93953.39
2018-02-10T23:05:33.457Z,93952.38
2018-02-10T23:07:59.524Z,93952.13
2018-02-10T23:10:25.593Z,93956.57
2018-02-10T23:12:51.618Z,93947.25
2018-02-10T23:15:17.679Z,93943.86
2018-02-10T23:17:43.758Z,93943.70
2018-02-10T23:20:09.821Z,93940.80
2018-02-10T23:22:35.856Z,93938.22
2018-02-10T23:25:02.024Z,93936.92
2018-02-10T23:27:28.055Z,93933.17
2018-02-10T23:29:54.091Z,93917.81
2018-02-10T23:32:20.221Z,93917.69
2018-02-10T23:34:46.228Z,93924.56
2018-02-10T23:37:12.237Z,93924.80
2018-02-10T23:39:38.299Z,93927.41
2018-02-10T23:42:04.364Z,93928.29
2018-02-10T23:44:30.393Z,93917.78
2018-02-10T23:46:56.423Z,93914.77
2018-02-10T23:49:22.529Z,93917.38
2018-02-10T23:51:48.618Z,93922.74
2018-02-10T23:54:14.647Z,93917.69
2018-02-10T23:56:40.676Z,93911.13
2018-02-10T23:59:06.740Z,93914.06
